sensor_id;sensor_type;location;lat;lon;timestamp;P1;durP1;ratioP1;P2;durP2;ratioP2
13989;SDS011;7069;52.528;13.316;2023-05-01T00:01:36;13.60;;;10.60;;
13989;SDS011;7069;52.528;13.316;2023-05-01T00:04:03;13.47;;;9.70;;
13989;SDS011;7069;52.528;13.316;2023-05-01T00:06:31;11.70;;;8.97;;
13989;SDS011;7069;52.528;13.316;2023-05-01T00:08:58;13.80;;;10.00;;
13989;SDS011;7069;52.528;13.316;2023-05-01T00:11:25;10.80;;;9.10;;
13989;SDS011;7069;52.528;13.316;2023-05-01T00:13:52;9.00;;;7.70;;
13989;SDS011;7069;52.528;13.316;2023-05-01T00:16:19;8.17;;;6.60;;
13989;SDS011;7069;52.528;13.316;2023-05-01T00:18:45;7.97;;;6.73;;
13989;SDS011;7069;52.528;13.316;2023-05-01T00:21:12;11.83;;;6.40;;
13989;SDS011;7069;52.528;13.316;2023-05-01T00:23:40;8.90;;;5.37;;
13989;SDS011;7069;52.528;13.316;2023-05-01T00:26:06;11.13;;;4.97;;
13989;SDS011;7069;52.528;13.316;2023-05-01T00:28:33;8.47;;;5.57;;
13989;SDS011;7069;52.528;13.316;2023-05-01T00:31:00;10.10;;;5.47;;
13989;SDS011;7069;52.528;13.316;2023-05-01T00:33:26;5.57;;;4.93;;
13989;SDS011;7069;52.528;13.316;2023-05-01T00:35:53;6.23;;;4.80;;
13989;SDS011;7069;52.528;13.316;2023-05-01T00:38:20;8.33;;;4.60;;
13989;SDS011;7069;52.528;13.316;2023-05-01T00:40:49;5.30;;;4.80;;
13989;SDS011;7069;52.528;13.316;2023-05-01T00:43:16;6.87;;;5.13;;
13989;SDS011;7069;52.528;13.316;2023-05-01T00:45:43;7.20;;;4.63;;
13989;SDS011;7069;52.528;13.316;2023-05-01T00:48:10;6.00;;;4.33;;
13989;SDS011;7069;52.528;13.316;2023-05-01T00:50:37;4.83;;;4.10;;
13989;SDS011;7069;52.528;13.316;2023-05-01T00:53:04;8.07;;;5.47;;
13989;SDS011;7069;52.528;13.316;2023-05-01T00:55:30;7.57;;;4.60;;
13989;SDS011;7069;52.528;13.316;2023-05-01T00:57:59;8.60;;;5.07;;
13989;SDS011;7069;52.528;13.316;2023-05-01T01:00:26;6.30;;;5.13;;
13989;SDS011;7069;52.528;13.316;2023-05-01T01:02:53;5.20;;;4.70;;
13989;SDS011;7069;52.528;13.316;2023-05-01T01:05:20;7.07;;;4.53;;
13989;SDS011;7069;52.528;13.316;2023-05-01T01:07:48;7.27;;;4.63;;
13989;SDS011;7069;52.528;13.316;2023-05-01T01:10:22;12.83;;;5.67;;
13989;SDS011;7069;52.528;13.316;2023-05-01T01:12:52;5.13;;;4.17;;
13989;SDS011;7069;52.528;13.316;2023-05-01T01:15:22;6.20;;;4.67;;
13989;SDS011;7069;52.528;13.316;2023-05-01T01:17:56;5.80;;;4.23;;
13989;SDS011;7069;52.528;13.316;2023-05-01T01:20:31;11.27;;;5.17;;
13989;SDS011;7069;52.528;13.316;2023-05-01T01:23:09;5.13;;;4.60;;
13989;SDS011;7069;52.528;13.316;2023-05-01T01:28:37;7.53;;;4.40;;
13989;SDS011;7069;52.528;13.316;2023-05-01T01:31:09;7.17;;;4.80;;
13989;SDS011;7069;52.528;13.316;2023-05-01T01:36:24;9.07;;;4.87;;
13989;SDS011;7069;52.528;13.316;2023-05-01T01:38:57;5.93;;;4.83;;
13989;SDS011;7069;52.528;13.316;2023-05-01T01:41:25;6.93;;;4.60;;
13989;SDS011;7069;52.528;13.316;2023-05-01T01:43:57;5.67;;;3.80;;
13989;SDS011;7069;52.528;13.316;2023-05-01T01:46:23;7.40;;;4.80;;
13989;SDS011;7069;52.528;13.316;2023-05-01T01:48:51;4.47;;;3.97;;
13989;SDS011;7069;52.528;13.316;2023-05-01T01:51:18;5.37;;;4.23;;
13989;SDS011;7069;52.528;13.316;2023-05-01T01:53:48;5.67;;;4.17;;
13989;SDS011;7069;52.528;13.316;2023-05-01T01:56:17;5.40;;;4.63;;
13989;SDS011;7069;52.528;13.316;2023-05-01T01:58:45;6.23;;;5.07;;
13989;SDS011;7069;52.528;13.316;2023-05-01T02:01:12;8.37;;;4.73;;
13989;SDS011;7069;52.528;13.316;2023-05-01T02:03:39;9.60;;;4.53;;
13989;SDS011;7069;52.528;13.316;2023-05-01T02:06:07;6.77;;;5.33;;
13989;SDS011;7069;52.528;13.316;2023-05-01T02:08:34;8.87;;;4.73;;
13989;SDS011;7069;52.528;13.316;2023-05-01T02:11:02;6.73;;;4.57;;
13989;SDS011;7069;52.528;13.316;2023-05-01T02:13:30;9.37;;;4.60;;
13989;SDS011;7069;52.528;13.316;2023-05-01T02:15:58;6.07;;;5.03;;
13989;SDS011;7069;52.528;13.316;2023-05-01T02:18:26;8.27;;;4.63;;
13989;SDS011;7069;52.528;13.316;2023-05-01T02:20:54;6.87;;;4.53;;
13989;SDS011;7069;52.528;13.316;2023-05-01T02:23:22;6.90;;;4.60;;
13989;SDS011;7069;52.528;13.316;2023-05-01T02:25:49;6.90;;;4.57;;
13989;SDS011;7069;52.528;13.316;2023-05-01T02:28:20;6.23;;;4.37;;
13989;SDS011;7069;52.528;13.316;2023-05-01T02:30:47;8.13;;;4.70;;
13989;SDS011;7069;52.528;13.316;2023-05-01T02:33:14;9.00;;;5.13;;
13989;SDS011;7069;52.528;13.316;2023-05-01T02:35:40;7.27;;;5.00;;
13989;SDS011;7069;52.528;13.316;2023-05-01T02:38:08;10.70;;;5.17;;
13989;SDS011;7069;52.528;13.316;2023-05-01T02:40:34;5.20;;;4.70;;
13989;SDS011;7069;52.528;13.316;2023-05-01T02:43:03;5.10;;;4.60;;
13989;SDS011;7069;52.528;13.316;2023-05-01T02:45:32;6.47;;;4.97;;
13989;SDS011;7069;52.528;13.316;2023-05-01T02:48:00;8.47;;;4.80;;
13989;SDS011;7069;52.528;13.316;2023-05-01T02:50:28;6.33;;;4.57;;
13989;SDS011;7069;52.528;13.316;2023-05-01T02:52:55;7.77;;;5.10;;
13989;SDS011;7069;52.528;13.316;2023-05-01T02:55:21;7.23;;;4.60;;
13989;SDS011;7069;52.528;13.316;2023-05-01T02:57:49;6.10;;;4.57;;
13989;SDS011;7069;52.528;13.316;2023-05-01T03:00:15;5.43;;;4.87;;
13989;SDS011;7069;52.528;13.316;2023-05-01T03:02:43;6.80;;;4.53;;
13989;SDS011;7069;52.528;13.316;2023-05-01T03:05:10;7.70;;;5.80;;
13989;SDS011;7069;52.528;13.316;2023-05-01T03:07:36;6.53;;;4.37;;
13989;SDS011;7069;52.528;13.316;2023-05-01T03:10:03;6.63;;;5.03;;
13989;SDS011;7069;52.528;13.316;2023-05-01T03:12:30;8.77;;;5.40;;
13989;SDS011;7069;52.528;13.316;2023-05-01T03:14:56;7.00;;;6.07;;
13989;SDS011;7069;52.528;13.316;2023-05-01T03:17:22;6.70;;;4.57;;
13989;SDS011;7069;52.528;13.316;2023-05-01T03:19:50;5.73;;;4.90;;
13989;SDS011;7069;52.528;13.316;2023-05-01T03:22:16;8.27;;;5.60;;
13989;SDS011;7069;52.528;13.316;2023-05-01T03:24:43;8.43;;;5.13;;
13989;SDS011;7069;52.528;13.316;2023-05-01T03:27:11;7.83;;;4.93;;
13989;SDS011;7069;52.528;13.316;2023-05-01T03:29:37;6.67;;;5.50;;
13989;SDS011;7069;52.528;13.316;2023-05-01T03:32:04;9.57;;;5.23;;
13989;SDS011;7069;52.528;13.316;2023-05-01T03:34:30;7.67;;;5.37;;
13989;SDS011;7069;52.528;13.316;2023-05-01T03:36:58;6.67;;;5.43;;
13989;SDS011;7069;52.528;13.316;2023-05-01T03:39:24;6.27;;;5.43;;
13989;SDS011;7069;52.528;13.316;2023-05-01T03:41:51;8.07;;;5.30;;
13989;SDS011;7069;52.528;13.316;2023-05-01T03:44:17;6.10;;;4.47;;
13989;SDS011;7069;52.528;13.316;2023-05-01T03:46:44;8.30;;;6.03;;
13989;SDS011;7069;52.528;13.316;2023-05-01T03:49:10;5.63;;;5.03;;
13989;SDS011;7069;52.528;13.316;2023-05-01T03:51:36;9.37;;;7.17;;
13989;SDS011;7069;52.528;13.316;2023-05-01T03:54:04;5.53;;;4.97;;
13989;SDS011;7069;52.528;13.316;2023-05-01T03:56:31;6.83;;;5.23;;
13989;SDS011;7069;52.528;13.316;2023-05-01T03:58:59;6.33;;;4.93;;
13989;SDS011;7069;52.528;13.316;2023-05-01T04:01:26;4.93;;;4.53;;
13989;SDS011;7069;52.528;13.316;2023-05-01T04:03:52;11.03;;;5.83;;
13989;SDS011;7069;52.528;13.316;2023-05-01T04:06:18;10.17;;;6.03;;
13989;SDS011;7069;52.528;13.316;2023-05-01T04:08:46;5.03;;;4.50;;
13989;SDS011;7069;52.528;13.316;2023-05-01T04:11:14;8.33;;;4.90;;
13989;SDS011;7069;52.528;13.316;2023-05-01T04:13:40;6.80;;;5.70;;
13989;SDS011;7069;52.528;13.316;2023-05-01T04:16:06;6.57;;;4.57;;
13989;SDS011;7069;52.528;13.316;2023-05-01T04:18:33;5.60;;;4.90;;
13989;SDS011;7069;52.528;13.316;2023-05-01T04:20:59;5.77;;;4.67;;
13989;SDS011;7069;52.528;13.316;2023-05-01T04:23:26;10.87;;;5.07;;
13989;SDS011;7069;52.528;13.316;2023-05-01T04:25:52;5.10;;;4.57;;
13989;SDS011;7069;52.528;13.316;2023-05-01T04:28:20;9.13;;;5.77;;
13989;SDS011;7069;52.528;13.316;2023-05-01T04:30:46;8.03;;;5.27;;
13989;SDS011;7069;52.528;13.316;2023-05-01T04:33:12;6.50;;;5.10;;
13989;SDS011;7069;52.528;13.316;2023-05-01T04:35:40;7.27;;;5.17;;
13989;SDS011;7069;52.528;13.316;2023-05-01T04:38:06;13.17;;;4.90;;
13989;SDS011;7069;52.528;13.316;2023-05-01T04:40:34;7.87;;;5.03;;
13989;SDS011;7069;52.528;13.316;2023-05-01T04:43:00;6.37;;;4.77;;
13989;SDS011;7069;52.528;13.316;2023-05-01T04:45:28;7.97;;;5.30;;
13989;SDS011;7069;52.528;13.316;2023-05-01T04:47:54;8.23;;;5.17;;
13989;SDS011;7069;52.528;13.316;2023-05-01T04:50:21;5.00;;;4.50;;
13989;SDS011;7069;52.528;13.316;2023-05-01T04:52:48;5.07;;;4.10;;
13989;SDS011;7069;52.528;13.316;2023-05-01T04:55:14;6.23;;;4.40;;
13989;SDS011;7069;52.528;13.316;2023-05-01T04:57:41;9.53;;;4.93;;
13989;SDS011;7069;52.528;13.316;2023-05-01T05:00:07;6.00;;;5.03;;
13989;SDS011;7069;52.528;13.316;2023-05-01T05:02:35;7.03;;;4.27;;
13989;SDS011;7069;52.528;13.316;2023-05-01T05:05:01;6.83;;;4.73;;
13989;SDS011;7069;52.528;13.316;2023-05-01T05:07:28;13.20;;;5.20;;
13989;SDS011;7069;52.528;13.316;2023-05-01T05:09:54;6.87;;;4.70;;
13989;SDS011;7069;52.528;13.316;2023-05-01T05:12:21;5.40;;;4.90;;
13989;SDS011;7069;52.528;13.316;2023-05-01T05:14:47;5.03;;;4.30;;
13989;SDS011;7069;52.528;13.316;2023-05-01T05:17:14;5.40;;;4.90;;
13989;SDS011;7069;52.528;13.316;2023-05-01T05:19:41;8.63;;;5.00;;
13989;SDS011;7069;52.528;13.316;2023-05-01T05:22:08;6.90;;;5.10;;
13989;SDS011;7069;52.528;13.316;2023-05-01T05:24:36;7.60;;;4.53;;
13989;SDS011;7069;52.528;13.316;2023-05-01T05:27:02;5.40;;;3.90;;
13989;SDS011;7069;52.528;13.316;2023-05-01T05:29:30;5.20;;;4.33;;
13989;SDS011;7069;52.528;13.316;2023-05-01T05:31:56;6.30;;;4.30;;
13989;SDS011;7069;52.528;13.316;2023-05-01T05:34:23;5.90;;;4.43;;
13989;SDS011;7069;52.528;13.316;2023-05-01T05:36:51;6.17;;;4.60;;
13989;SDS011;7069;52.528;13.316;2023-05-01T05:39:17;5.03;;;4.43;;
13989;SDS011;7069;52.528;13.316;2023-05-01T05:41:46;4.73;;;4.20;;
13989;SDS011;7069;52.528;13.316;2023-05-01T05:44:13;5.67;;;4.27;;
13989;SDS011;7069;52.528;13.316;2023-05-01T05:46:39;5.47;;;4.90;;
13989;SDS011;7069;52.528;13.316;2023-05-01T05:49:05;6.70;;;5.10;;
13989;SDS011;7069;52.528;13.316;2023-05-01T05:51:32;5.90;;;4.13;;
13989;SDS011;7069;52.528;13.316;2023-05-01T05:54:00;5.90;;;4.43;;
13989;SDS011;7069;52.528;13.316;2023-05-01T05:56:26;6.83;;;4.70;;
13989;SDS011;7069;52.528;13.316;2023-05-01T05:58:52;7.27;;;4.57;;
13989;SDS011;7069;52.528;13.316;2023-05-01T06:01:19;5.67;;;4.50;;
13989;SDS011;7069;52.528;13.316;2023-05-01T06:03:45;6.93;;;5.23;;
13989;SDS011;7069;52.528;13.316;2023-05-01T06:06:11;8.43;;;4.33;;
13989;SDS011;7069;52.528;13.316;2023-05-01T06:08:38;6.33;;;5.03;;
13989;SDS011;7069;52.528;13.316;2023-05-01T06:11:07;5.97;;;4.43;;
13989;SDS011;7069;52.528;13.316;2023-05-01T06:13:33;6.73;;;4.40;;
13989;SDS011;7069;52.528;13.316;2023-05-01T06:15:59;5.03;;;4.30;;
13989;SDS011;7069;52.528;13.316;2023-05-01T06:18:26;6.53;;;3.93;;
13989;SDS011;7069;52.528;13.316;2023-05-01T06:20:54;7.37;;;4.00;;
13989;SDS011;7069;52.528;13.316;2023-05-01T06:23:20;5.17;;;4.30;;
13989;SDS011;7069;52.528;13.316;2023-05-01T06:25:47;4.70;;;4.30;;
13989;SDS011;7069;52.528;13.316;2023-05-01T06:28:15;5.73;;;4.47;;
13989;SDS011;7069;52.528;13.316;2023-05-01T06:30:42;5.73;;;3.90;;
13989;SDS011;7069;52.528;13.316;2023-05-01T06:33:08;4.23;;;3.77;;
13989;SDS011;7069;52.528;13.316;2023-05-01T06:35:35;7.37;;;4.57;;
13989;SDS011;7069;52.528;13.316;2023-05-01T06:38:02;6.60;;;4.17;;
13989;SDS011;7069;52.528;13.316;2023-05-01T06:40:28;7.77;;;3.80;;
13989;SDS011;7069;52.528;13.316;2023-05-01T06:42:55;6.43;;;4.10;;
13989;SDS011;7069;52.528;13.316;2023-05-01T06:45:23;5.37;;;3.93;;
13989;SDS011;7069;52.528;13.316;2023-05-01T06:47:50;4.23;;;3.70;;
13989;SDS011;7069;52.528;13.316;2023-05-01T06:50:17;5.73;;;3.87;;
13989;SDS011;7069;52.528;13.316;2023-05-01T06:52:43;5.07;;;3.33;;
13989;SDS011;7069;52.528;13.316;2023-05-01T06:55:10;7.63;;;3.93;;
13989;SDS011;7069;52.528;13.316;2023-05-01T06:57:37;7.80;;;3.57;;
13989;SDS011;7069;52.528;13.316;2023-05-01T07:00:04;6.47;;;3.97;;
13989;SDS011;7069;52.528;13.316;2023-05-01T07:02:32;6.97;;;4.23;;
13989;SDS011;7069;52.528;13.316;2023-05-01T07:04:59;6.07;;;3.90;;
13989;SDS011;7069;52.528;13.316;2023-05-01T07:07:25;6.23;;;3.40;;
13989;SDS011;7069;52.528;13.316;2023-05-01T07:09:52;6.20;;;4.17;;
13989;SDS011;7069;52.528;13.316;2023-05-01T07:12:18;7.50;;;4.00;;
13989;SDS011;7069;52.528;13.316;2023-05-01T07:14:44;4.50;;;4.05;;
13989;SDS011;7069;52.528;13.316;2023-05-01T07:17:11;4.70;;;4.03;;
13989;SDS011;7069;52.528;13.316;2023-05-01T07:19:39;6.68;;;3.95;;
13989;SDS011;7069;52.528;13.316;2023-05-01T07:22:06;4.72;;;3.53;;
13989;SDS011;7069;52.528;13.316;2023-05-01T07:24:32;5.28;;;3.38;;
13989;SDS011;7069;52.528;13.316;2023-05-01T07:26:58;5.45;;;4.10;;
13989;SDS011;7069;52.528;13.316;2023-05-01T07:29:25;6.72;;;3.92;;
13989;SDS011;7069;52.528;13.316;2023-05-01T07:31:52;7.00;;;3.75;;
13989;SDS011;7069;52.528;13.316;2023-05-01T07:34:19;6.72;;;3.50;;
13989;SDS011;7069;52.528;13.316;2023-05-01T07:36:47;7.55;;;3.65;;
13989;SDS011;7069;52.528;13.316;2023-05-01T07:39:13;6.28;;;3.42;;
13989;SDS011;7069;52.528;13.316;2023-05-01T07:41:41;3.97;;;3.45;;
13989;SDS011;7069;52.528;13.316;2023-05-01T07:44:08;10.25;;;3.50;;
13989;SDS011;7069;52.528;13.316;2023-05-01T07:46:34;4.10;;;3.42;;
13989;SDS011;7069;52.528;13.316;2023-05-01T07:49:01;4.35;;;3.63;;
13989;SDS011;7069;52.528;13.316;2023-05-01T07:51:28;5.65;;;3.78;;
13989;SDS011;7069;52.528;13.316;2023-05-01T07:53:56;4.72;;;3.28;;
13989;SDS011;7069;52.528;13.316;2023-05-01T07:56:23;3.75;;;2.85;;
13989;SDS011;7069;52.528;13.316;2023-05-01T07:58:49;5.20;;;3.10;;
13989;SDS011;7069;52.528;13.316;2023-05-01T08:01:15;6.85;;;3.22;;
13989;SDS011;7069;52.528;13.316;2023-05-01T08:03:42;7.15;;;3.38;;
13989;SDS011;7069;52.528;13.316;2023-05-01T08:06:08;4.32;;;3.28;;
13989;SDS011;7069;52.528;13.316;2023-05-01T08:08:34;8.60;;;3.90;;
13989;SDS011;7069;52.528;13.316;2023-05-01T08:11:02;7.90;;;3.30;;
13989;SDS011;7069;52.528;13.316;2023-05-01T08:13:29;7.80;;;3.42;;
13989;SDS011;7069;52.528;13.316;2023-05-01T08:15:58;7.22;;;4.15;;
13989;SDS011;7069;52.528;13.316;2023-05-01T08:18:25;3.20;;;2.90;;
13989;SDS011;7069;52.528;13.316;2023-05-01T08:20:52;6.03;;;3.28;;
13989;SDS011;7069;52.528;13.316;2023-05-01T08:23:18;4.75;;;2.92;;
13989;SDS011;7069;52.528;13.316;2023-05-01T08:25:45;4.00;;;2.90;;
13989;SDS011;7069;52.528;13.316;2023-05-01T08:28:16;7.82;;;3.65;;
13989;SDS011;7069;52.528;13.316;2023-05-01T08:30:44;6.32;;;3.53;;
13989;SDS011;7069;52.528;13.316;2023-05-01T08:33:13;8.95;;;3.13;;
13989;SDS011;7069;52.528;13.316;2023-05-01T08:35:40;5.57;;;3.65;;
13989;SDS011;7069;52.528;13.316;2023-05-01T08:38:06;3.90;;;3.33;;
13989;SDS011;7069;52.528;13.316;2023-05-01T08:40:35;5.35;;;2.88;;
13989;SDS011;7069;52.528;13.316;2023-05-01T08:43:01;4.70;;;3.00;;
13989;SDS011;7069;52.528;13.316;2023-05-01T08:45:30;3.60;;;2.53;;
13989;SDS011;7069;52.528;13.316;2023-05-01T08:48:00;5.30;;;3.10;;
13989;SDS011;7069;52.528;13.316;2023-05-01T08:50:27;3.28;;;2.47;;
13989;SDS011;7069;52.528;13.316;2023-05-01T08:52:54;3.83;;;2.70;;
13989;SDS011;7069;52.528;13.316;2023-05-01T08:55:22;6.40;;;2.80;;
13989;SDS011;7069;52.528;13.316;2023-05-01T08:57:51;5.55;;;2.97;;
13989;SDS011;7069;52.528;13.316;2023-05-01T09:00:18;4.05;;;3.03;;
13989;SDS011;7069;52.528;13.316;2023-05-01T09:02:47;3.83;;;2.75;;
13989;SDS011;7069;52.528;13.316;2023-05-01T09:05:14;5.10;;;2.80;;
13989;SDS011;7069;52.528;13.316;2023-05-01T09:07:41;4.40;;;2.63;;
13989;SDS011;7069;52.528;13.316;2023-05-01T09:10:08;3.47;;;2.42;;
13989;SDS011;7069;52.528;13.316;2023-05-01T09:12:34;3.88;;;1.98;;
13989;SDS011;7069;52.528;13.316;2023-05-01T09:15:01;3.92;;;2.63;;
13989;SDS011;7069;52.528;13.316;2023-05-01T09:17:28;4.45;;;2.35;;
13989;SDS011;7069;52.528;13.316;2023-05-01T09:19:58;3.90;;;2.97;;
13989;SDS011;7069;52.528;13.316;2023-05-01T09:22:26;4.43;;;3.10;;
13989;SDS011;7069;52.528;13.316;2023-05-01T09:24:55;4.88;;;2.60;;
13989;SDS011;7069;52.528;13.316;2023-05-01T09:27:21;3.88;;;2.58;;
13989;SDS011;7069;52.528;13.316;2023-05-01T09:29:48;4.78;;;2.58;;
13989;SDS011;7069;52.528;13.316;2023-05-01T09:32:15;6.93;;;3.13;;
13989;SDS011;7069;52.528;13.316;2023-05-01T09:34:42;9.95;;;3.30;;
13989;SDS011;7069;52.528;13.316;2023-05-01T09:37:11;5.00;;;2.33;;
13989;SDS011;7069;52.528;13.316;2023-05-01T09:39:37;6.63;;;2.88;;
13989;SDS011;7069;52.528;13.316;2023-05-01T09:42:04;4.15;;;2.13;;
13989;SDS011;7069;52.528;13.316;2023-05-01T09:44:30;3.67;;;2.63;;
13989;SDS011;7069;52.528;13.316;2023-05-01T09:46:56;3.58;;;2.55;;
13989;SDS011;7069;52.528;13.316;2023-05-01T09:52:12;6.43;;;3.70;;
13989;SDS011;7069;52.528;13.316;2023-05-01T09:54:39;6.70;;;3.38;;
13989;SDS011;7069;52.528;13.316;2023-05-01T09:57:05;6.18;;;3.17;;
13989;SDS011;7069;52.528;13.316;2023-05-01T09:59:32;3.70;;;2.33;;
13989;SDS011;7069;52.528;13.316;2023-05-01T10:01:59;4.07;;;3.17;;
13989;SDS011;7069;52.528;13.316;2023-05-01T10:04:29;3.47;;;2.90;;
13989;SDS011;7069;52.528;13.316;2023-05-01T10:06:56;6.68;;;2.83;;
13989;SDS011;7069;52.528;13.316;2023-05-01T10:09:27;5.53;;;3.05;;
13989;SDS011;7069;52.528;13.316;2023-05-01T10:11:54;7.50;;;3.38;;
13989;SDS011;7069;52.528;13.316;2023-05-01T10:14:21;4.97;;;2.72;;
13989;SDS011;7069;52.528;13.316;2023-05-01T10:16:50;6.28;;;3.13;;
13989;SDS011;7069;52.528;13.316;2023-05-01T10:19:17;4.47;;;2.92;;
13989;SDS011;7069;52.528;13.316;2023-05-01T10:21:45;3.45;;;2.85;;
13989;SDS011;7069;52.528;13.316;2023-05-01T10:24:11;3.40;;;2.92;;
13989;SDS011;7069;52.528;13.316;2023-05-01T10:26:40;7.35;;;4.03;;
13989;SDS011;7069;52.528;13.316;2023-05-01T10:29:07;4.55;;;3.10;;
13989;SDS011;7069;52.528;13.316;2023-05-01T10:31:34;4.82;;;2.90;;
13989;SDS011;7069;52.528;13.316;2023-05-01T10:34:01;4.40;;;3.30;;
13989;SDS011;7069;52.528;13.316;2023-05-01T10:36:30;5.95;;;2.90;;
13989;SDS011;7069;52.528;13.316;2023-05-01T10:38:57;4.35;;;3.08;;
13989;SDS011;7069;52.528;13.316;2023-05-01T10:44:20;7.07;;;3.13;;
13989;SDS011;7069;52.528;13.316;2023-05-01T10:46:47;6.68;;;3.58;;
13989;SDS011;7069;52.528;13.316;2023-05-01T10:49:13;8.35;;;3.90;;
13989;SDS011;7069;52.528;13.316;2023-05-01T10:54:22;5.28;;;3.35;;
13989;SDS011;7069;52.528;13.316;2023-05-01T10:56:52;8.10;;;3.60;;
13989;SDS011;7069;52.528;13.316;2023-05-01T10:59:20;6.55;;;3.03;;
13989;SDS011;7069;52.528;13.316;2023-05-01T11:01:46;5.10;;;3.50;;
13989;SDS011;7069;52.528;13.316;2023-05-01T11:07:17;3.67;;;3.38;;
13989;SDS011;7069;52.528;13.316;2023-05-01T11:09:44;5.43;;;3.50;;
13989;SDS011;7069;52.528;13.316;2023-05-01T11:12:13;3.90;;;3.22;;
13989;SDS011;7069;52.528;13.316;2023-05-01T11:20:10;8.30;;;4.20;;
13989;SDS011;7069;52.528;13.316;2023-05-01T11:22:37;5.10;;;3.15;;
13989;SDS011;7069;52.528;13.316;2023-05-01T11:25:04;4.13;;;3.72;;
13989;SDS011;7069;52.528;13.316;2023-05-01T11:27:44;4.78;;;3.45;;
13989;SDS011;7069;52.528;13.316;2023-05-01T11:30:11;5.07;;;3.63;;
13989;SDS011;7069;52.528;13.316;2023-05-01T11:32:38;6.78;;;4.28;;
13989;SDS011;7069;52.528;13.316;2023-05-01T11:35:14;4.13;;;3.15;;
13989;SDS011;7069;52.528;13.316;2023-05-01T11:37:41;8.38;;;3.85;;
13989;SDS011;7069;52.528;13.316;2023-05-01T11:40:17;5.20;;;3.75;;
13989;SDS011;7069;52.528;13.316;2023-05-01T11:42:44;4.07;;;3.00;;
13989;SDS011;7069;52.528;13.316;2023-05-01T11:45:10;5.78;;;3.65;;
13989;SDS011;7069;52.528;13.316;2023-05-01T11:47:37;4.28;;;3.33;;
13989;SDS011;7069;52.528;13.316;2023-05-01T11:50:04;5.97;;;3.30;;
13989;SDS011;7069;52.528;13.316;2023-05-01T11:52:41;4.95;;;3.55;;
13989;SDS011;7069;52.528;13.316;2023-05-01T11:55:08;4.25;;;3.60;;
13989;SDS011;7069;52.528;13.316;2023-05-01T11:57:43;4.88;;;3.97;;
13989;SDS011;7069;52.528;13.316;2023-05-01T12:00:10;3.80;;;3.20;;
13989;SDS011;7069;52.528;13.316;2023-05-01T12:02:37;5.15;;;3.47;;
13989;SDS011;7069;52.528;13.316;2023-05-01T12:05:13;6.20;;;3.47;;
13989;SDS011;7069;52.528;13.316;2023-05-01T12:07:41;7.43;;;4.10;;
13989;SDS011;7069;52.528;13.316;2023-05-01T12:10:07;6.00;;;3.83;;
13989;SDS011;7069;52.528;13.316;2023-05-01T12:12:34;4.28;;;3.90;;
13989;SDS011;7069;52.528;13.316;2023-05-01T12:15:01;5.97;;;4.40;;
13989;SDS011;7069;52.528;13.316;2023-05-01T12:17:28;5.03;;;3.60;;
13989;SDS011;7069;52.528;13.316;2023-05-01T12:19:54;6.43;;;3.88;;
13989;SDS011;7069;52.528;13.316;2023-05-01T12:22:20;4.30;;;3.50;;
13989;SDS011;7069;52.528;13.316;2023-05-01T12:24:49;5.90;;;3.88;;
13989;SDS011;7069;52.528;13.316;2023-05-01T12:27:16;3.38;;;3.08;;
13989;SDS011;7069;52.528;13.316;2023-05-01T12:29:42;4.70;;;3.67;;
13989;SDS011;7069;52.528;13.316;2023-05-01T12:32:11;5.45;;;3.40;;
13989;SDS011;7069;52.528;13.316;2023-05-01T12:34:37;5.65;;;3.45;;
13989;SDS011;7069;52.528;13.316;2023-05-01T12:37:04;4.57;;;3.60;;
13989;SDS011;7069;52.528;13.316;2023-05-01T12:39:35;5.00;;;3.25;;
13989;SDS011;7069;52.528;13.316;2023-05-01T12:42:03;4.47;;;3.83;;
13989;SDS011;7069;52.528;13.316;2023-05-01T12:44:36;6.60;;;4.43;;
13989;SDS011;7069;52.528;13.316;2023-05-01T12:47:03;4.20;;;3.80;;
13989;SDS011;7069;52.528;13.316;2023-05-01T12:49:30;5.28;;;4.30;;
13989;SDS011;7069;52.528;13.316;2023-05-01T12:51:58;5.50;;;4.18;;
13989;SDS011;7069;52.528;13.316;2023-05-01T12:54:26;4.63;;;4.13;;
13989;SDS011;7069;52.528;13.316;2023-05-01T12:56:52;6.70;;;3.65;;
13989;SDS011;7069;52.528;13.316;2023-05-01T12:59:21;5.13;;;4.20;;
13989;SDS011;7069;52.528;13.316;2023-05-01T13:01:48;4.10;;;3.58;;
13989;SDS011;7069;52.528;13.316;2023-05-01T13:04:19;8.00;;;3.58;;
13989;SDS011;7069;52.528;13.316;2023-05-01T13:06:45;5.82;;;3.65;;
13989;SDS011;7069;52.528;13.316;2023-05-01T13:09:12;5.60;;;4.05;;
13989;SDS011;7069;52.528;13.316;2023-05-01T13:11:39;11.68;;;9.27;;
13989;SDS011;7069;52.528;13.316;2023-05-01T13:14:06;6.85;;;4.45;;
13989;SDS011;7069;52.528;13.316;2023-05-01T13:16:34;7.30;;;3.65;;
13989;SDS011;7069;52.528;13.316;2023-05-01T13:19:08;6.57;;;3.53;;
13989;SDS011;7069;52.528;13.316;2023-05-01T13:21:35;6.45;;;3.90;;
13989;SDS011;7069;52.528;13.316;2023-05-01T13:24:01;4.68;;;3.50;;
13989;SDS011;7069;52.528;13.316;2023-05-01T13:26:28;6.18;;;4.18;;
13989;SDS011;7069;52.528;13.316;2023-05-01T13:28:55;4.53;;;3.65;;
13989;SDS011;7069;52.528;13.316;2023-05-01T13:31:24;4.55;;;4.07;;
13989;SDS011;7069;52.528;13.316;2023-05-01T13:33:52;4.30;;;3.90;;
13989;SDS011;7069;52.528;13.316;2023-05-01T13:36:19;5.47;;;4.43;;
13989;SDS011;7069;52.528;13.316;2023-05-01T13:38:46;4.28;;;3.88;;
13989;SDS011;7069;52.528;13.316;2023-05-01T13:41:15;4.78;;;3.90;;
13989;SDS011;7069;52.528;13.316;2023-05-01T13:43:41;6.57;;;3.85;;
13989;SDS011;7069;52.528;13.316;2023-05-01T13:46:09;4.20;;;3.80;;
13989;SDS011;7069;52.528;13.316;2023-05-01T13:48:35;5.88;;;4.13;;
13989;SDS011;7069;52.528;13.316;2023-05-01T13:51:04;5.63;;;3.65;;
13989;SDS011;7069;52.528;13.316;2023-05-01T13:53:30;5.13;;;3.58;;
13989;SDS011;7069;52.528;13.316;2023-05-01T13:55:57;4.90;;;4.32;;
13989;SDS011;7069;52.528;13.316;2023-05-01T13:58:23;18.38;;;5.18;;
13989;SDS011;7069;52.528;13.316;2023-05-01T14:00:50;13.05;;;4.88;;
13989;SDS011;7069;52.528;13.316;2023-05-01T14:03:16;15.60;;;5.65;;
13989;SDS011;7069;52.528;13.316;2023-05-01T14:05:43;9.68;;;4.05;;
13989;SDS011;7069;52.528;13.316;2023-05-01T14:08:11;5.78;;;4.40;;
13989;SDS011;7069;52.528;13.316;2023-05-01T14:10:38;5.78;;;3.88;;
13989;SDS011;7069;52.528;13.316;2023-05-01T14:13:05;5.07;;;3.90;;
13989;SDS011;7069;52.528;13.316;2023-05-01T14:15:32;5.43;;;4.88;;
13989;SDS011;7069;52.528;13.316;2023-05-01T14:18:03;6.15;;;4.72;;
13989;SDS011;7069;52.528;13.316;2023-05-01T14:20:29;4.85;;;4.35;;
13989;SDS011;7069;52.528;13.316;2023-05-01T14:22:56;6.47;;;4.15;;
13989;SDS011;7069;52.528;13.316;2023-05-01T14:25:24;5.72;;;4.57;;
13989;SDS011;7069;52.528;13.316;2023-05-01T14:27:51;7.32;;;4.70;;
13989;SDS011;7069;52.528;13.316;2023-05-01T14:30:22;8.27;;;4.53;;
13989;SDS011;7069;52.528;13.316;2023-05-01T14:32:50;7.22;;;4.82;;
13989;SDS011;7069;52.528;13.316;2023-05-01T14:35:17;5.28;;;4.18;;
13989;SDS011;7069;52.528;13.316;2023-05-01T14:37:45;6.45;;;4.45;;
13989;SDS011;7069;52.528;13.316;2023-05-01T14:40:11;8.73;;;5.22;;
13989;SDS011;7069;52.528;13.316;2023-05-01T14:42:41;5.13;;;4.60;;
13989;SDS011;7069;52.528;13.316;2023-05-01T14:45:09;6.07;;;4.97;;
13989;SDS011;7069;52.528;13.316;2023-05-01T14:47:36;5.50;;;4.72;;
13989;SDS011;7069;52.528;13.316;2023-05-01T14:50:04;6.53;;;5.20;;
13989;SDS011;7069;52.528;13.316;2023-05-01T14:52:31;7.53;;;4.60;;
13989;SDS011;7069;52.528;13.316;2023-05-01T14:54:57;6.18;;;4.68;;
13989;SDS011;7069;52.528;13.316;2023-05-01T14:57:23;6.40;;;4.40;;
13989;SDS011;7069;52.528;13.316;2023-05-01T14:59:51;5.85;;;4.47;;
13989;SDS011;7069;52.528;13.316;2023-05-01T15:02:18;8.27;;;5.18;;
13989;SDS011;7069;52.528;13.316;2023-05-01T15:04:44;4.90;;;4.40;;
13989;SDS011;7069;52.528;13.316;2023-05-01T15:07:11;6.18;;;4.90;;
13989;SDS011;7069;52.528;13.316;2023-05-01T15:09:39;6.25;;;4.55;;
13989;SDS011;7069;52.528;13.316;2023-05-01T15:12:06;6.10;;;5.28;;